Time;durP1;ratioP1;P1;durP2;ratioP2;P2;SDS_P1;SDS_P2;PMS_P1;PMS_P2;Temp;Humidity;BMP_temperature;BMP_pressure;BME280_temperature;BME280_humidity;BME280_pressure;Samples;Min_cycle;Max_cycle;Signal;HPM_P1;HPM_P2
2024/01/22 06:58:53;;;;;;;4.57;1.30;;;;;;;5.87;67.62;100584.78;4894987;29;20242;-63
2024/01/22 07:01:22;;;;;;;4.13;1.80;;;;;;;5.91;67.14;100588.88;4890857;29;20266;-64
2024/01/22 07:03:50;;;;;;;7.47;1.80;;;;;;;5.97;66.97;100577.91;4890898;29;20670;-63
2024/01/22 07:06:22;;;;;;;4.90;1.60;;;;;;;5.93;67.10;100592.25;4889008;29;20898;-64
2024/01/22 07:09:00;;;;;;;7.23;1.87;;;;;;;5.93;67.30;100594.88;4892976;29;20223;-63
2024/01/22 07:11:32;;;;;;;4.27;2.03;;;;;;;5.96;67.26;100592.03;4892514;29;20652;-64
2024/01/22 07:14:06;;;;;;;3.63;1.70;;;;;;;5.98;67.45;100593.56;4891852;29;20222;-63
2024/01/22 07:16:51;;;;;;;6.53;1.77;;;;;;;6.05;67.49;100599.22;4886277;29;20700;-63
2024/01/22 07:19:23;;;;;;;7.17;2.33;;;;;;;6.04;67.77;100605.44;4890286;29;20214;-62
2024/01/22 07:21:54;;;;;;;6.43;2.67;;;;;;;6.06;67.66;100605.34;4890253;29;21880;-63
2024/01/22 07:24:29;;;;;;;4.77;2.23;;;;;;;6.07;67.45;100607.84;4891105;29;20761;-62
2024/01/22 07:26:57;;;;;;;4.43;1.90;;;;;;;6.09;67.37;100611.19;4883024;23;20830;-63
2024/01/22 07:29:30;;;;;;;7.20;1.63;;;;;;;6.13;67.45;100617.91;4860292;29;20216;-63
2024/01/22 07:31:58;;;;;;;6.73;1.53;;;;;;;6.21;66.94;100615.53;4864967;29;20946;-63
2024/01/22 07:34:27;;;;;;;7.00;1.53;;;;;;;6.23;66.80;100626.81;4863246;29;20303;-64
2024/01/22 07:36:56;;;;;;;5.47;1.80;;;;;;;6.23;66.70;100625.97;4862732;29;20278;-63
2024/01/22 07:39:26;;;;;;;4.23;1.20;;;;;;;6.22;67.27;100629.56;4864278;29;20219;-64
2024/01/22 07:41:54;;;;;;;5.77;1.50;;;;;;;6.24;67.15;100625.84;4862194;29;20254;-68
2024/01/22 07:44:22;;;;;;;14.60;3.23;;;;;;;6.26;68.07;100639.72;4862988;29;20962;-63
2024/01/22 07:46:54;;;;;;;3.17;1.40;;;;;;;6.33;67.55;100621.69;4863241;29;20221;-64
2024/01/22 07:49:23;;;;;;;5.97;1.40;;;;;;;6.44;67.83;100634.84;4861171;29;20220;-65
2024/01/22 07:51:52;;;;;;;6.53;1.90;;;;;;;6.38;68.96;100637.97;4861856;29;20229;-64
2024/01/22 07:54:20;;;;;;;3.77;1.57;;;;;;;6.34;70.07;100639.13;4863517;29;20555;-63
2024/01/22 07:56:48;;;;;;;4.77;1.30;;;;;;;6.35;70.87;100644.28;4863797;29;20326;-64
2024/01/22 07:59:17;;;;;;;3.63;1.60;;;;;;;6.23;72.36;100639.97;4862824;29;20218;-63
2024/01/22 08:01:45;;;;;;;5.50;1.80;;;;;;;6.20;73.81;100650.72;4863467;29;20223;-66
2024/01/22 08:04:16;;;;;;;8.07;2.30;;;;;;;6.16;75.19;100651.91;4861273;29;20232;-63
2024/01/22 08:06:46;;;;;;;7.83;1.87;;;;;;;6.03;76.65;100651.16;4862242;29;20216;-65
2024/01/22 08:09:15;;;;;;;5.73;1.47;;;;;;;5.96;77.58;100652.56;4862891;29;20216;-64
2024/01/22 08:11:44;;;;;;;4.30;1.57;;;;;;;5.96;78.21;100642.03;4861634;29;20270;-64
2024/01/22 08:14:26;;;;;;;7.23;2.03;;;;;;;5.93;78.51;100652.78;4863069;29;20219;-62
2024/01/22 08:16:55;;;;;;;6.40;1.83;;;;;;;5.97;78.36;100646.34;4862420;29;20295;-64
2024/01/22 08:19:26;;;;;;;4.60;1.83;;;;;;;5.94;78.96;100633.41;4864254;29;20279;-64
2024/01/22 08:21:59;;;;;;;6.77;1.87;;;;;;;5.95;78.58;100629.84;4861226;29;20224;-63
2024/01/22 08:24:37;;;;;;;5.70;1.63;;;;;;;6.02;78.28;100633.69;4860261;29;20266;-63
2024/01/22 08:27:06;;;;;;;9.70;2.00;;;;;;;5.99;78.25;100633.91;4861550;29;20233;-63
2024/01/22 08:29:35;;;;;;;5.93;2.10;;;;;;;5.97;78.74;100655.09;4863340;29;20203;-64
2024/01/22 08:32:14;;;;;;;4.83;1.70;;;;;;;5.97;78.45;100649.00;4857871;29;20231;-65
2024/01/22 08:34:58;;;;;;;5.73;1.63;;;;;;;6.00;78.25;100660.13;4861713;29;21056;-64
2024/01/22 08:37:28;;;;;;;3.90;1.43;;;;;;;6.07;77.71;100655.22;4861012;29;20267;-65
2024/01/22 08:40:03;;;;;;;7.43;1.30;;;;;;;6.09;77.64;100655.94;4861542;29;20265;-64
2024/01/22 08:42:34;;;;;;;6.00;1.60;;;;;;;6.12;77.98;100649.63;4864247;29;20279;-64
2024/01/22 08:45:06;;;;;;;6.23;1.30;;;;;;;6.19;78.46;100649.03;4863200;29;20207;-64
2024/01/22 08:47:35;;;;;;;5.40;1.53;;;;;;;6.24;78.71;100628.50;4861448;29;20211;-64
2024/01/22 08:50:09;;;;;;;7.77;1.63;;;;;;;6.17;79.71;100629.03;4864738;29;20303;-64
2024/01/22 08:52:37;;;;;;;9.73;2.17;;;;;;;6.21;80.99;100641.03;4864278;29;20235;-65
2024/01/22 08:55:07;;;;;;;2.87;1.23;;;;;;;6.17;81.79;100635.16;4862049;29;20219;-65
2024/01/22 08:57:36;;;;;;;4.53;1.57;;;;;;;6.17;82.62;100629.88;4862734;29;20219;-65
2024/01/22 09:00:10;;;;;;;5.47;1.63;;;;;;;6.14;83.32;100650.34;4864928;29;21447;-64
2024/01/22 09:02:43;;;;;;;10.17;1.87;;;;;;;6.17;83.97;100640.41;4866437;29;20225;-65
2024/01/22 09:05:19;;;;;;;4.80;1.70;;;;;;;6.19;84.23;100627.97;4865284;29;20239;-64
2024/01/22 09:07:56;;;;;;;3.47;1.73;;;;;;;6.18;85.12;100636.84;4866951;29;20278;-65
2024/01/22 09:10:27;;;;;;;3.47;1.80;;;;;;;6.23;85.57;100634.72;4866150;29;20292;-64
2024/01/22 09:13:15;;;;;;;5.63;2.40;;;;;;;6.19;86.35;100620.09;4864069;29;20227;-64
2024/01/22 09:15:50;;;;;;;3.80;1.87;;;;;;;6.20;87.08;100608.59;4863555;29;20218;-66
2024/01/22 09:18:21;;;;;;;5.47;1.67;;;;;;;6.17;87.89;100624.63;4867967;29;20220;-63
2024/01/22 09:20:55;;;;;;;8.30;1.97;;;;;;;6.23;88.32;100628.59;4865628;29;20214;-64
2024/01/22 09:23:28;;;;;;;4.80;1.80;;;;;;;6.30;87.82;100608.75;4865311;29;20300;-65
2024/01/22 09:25:59;;;;;;;6.53;1.80;;;;;;;6.20;88.85;100629.66;4865079;29;20230;-64
2024/01/22 09:28:30;;;;;;;4.80;1.50;;;;;;;6.27;88.85;100630.88;4864826;29;20215;-64
2024/01/22 09:31:02;;;;;;;3.97;2.13;;;;;;;6.28;88.80;100627.28;4863979;29;20251;-64
2024/01/22 09:33:31;;;;;;;8.13;2.17;;;;;;;6.31;88.62;100611.25;4866199;29;20208;-65
2024/01/22 09:36:03;;;;;;;4.27;1.57;;;;;;;6.30;88.83;100599.03;4865824;29;20291;-64
2024/01/22 09:38:33;;;;;;;5.47;1.57;;;;;;;6.33;89.09;100604.06;4860910;29;20694;-65
2024/01/22 09:41:02;;;;;;;6.43;1.83;;;;;;;6.27;90.27;100588.72;4863364;29;20220;-65
2024/01/22 09:43:35;;;;;;;8.03;1.83;;;;;;;6.26;90.90;100596.75;4865045;29;20261;-65
2024/01/22 09:46:04;;;;;;;5.30;1.90;;;;;;;6.30;91.05;100585.03;4861139;29;20212;-64
2024/01/22 09:48:35;;;;;;;8.67;1.90;;;;;;;6.32;90.86;100591.88;4863747;29;20583;-63
2024/01/22 09:51:09;;;;;;;4.20;1.67;;;;;;;6.29;90.96;100586.00;4864858;29;20240;-64
2024/01/22 09:53:46;;;;;;;8.20;2.23;;;;;;;6.36;90.71;100580.13;4863897;29;20208;-64
2024/01/22 09:56:19;;;;;;;6.73;3.03;;;;;;;6.33;91.04;100588.25;4862581;29;20221;-65
2024/01/22 09:59:01;;;;;;;6.13;2.20;;;;;;;6.34;91.55;100587.28;4864203;29;20217;-65
2024/01/22 10:01:33;;;;;;;4.50;2.00;;;;;;;6.33;91.48;100582.97;4864046;29;20278;-65
2024/01/22 10:04:04;;;;;;;8.27;2.13;;;;;;;6.38;91.42;100580.00;4861575;29;20323;-65
2024/01/22 10:06:36;;;;;;;5.63;2.30;;;;;;;6.32;92.33;100572.59;4863088;29;20225;-65
2024/01/22 10:09:08;;;;;;;6.30;2.70;;;;;;;6.34;93.12;100582.03;4863796;29;20939;-63
2024/01/22 10:11:37;;;;;;;8.37;2.20;;;;;;;6.40;92.85;100584.22;4863691;29;20260;-65
2024/01/22 10:14:10;;;;;;;5.70;2.30;;;;;;;6.44;92.81;100571.63;4865282;29;20295;-65
2024/01/22 10:16:44;;;;;;;9.07;2.97;;;;;;;6.47;92.83;100579.31;4863994;29;20215;-64
2024/01/22 10:19:14;;;;;;;8.43;2.60;;;;;;;6.55;92.67;100576.06;4863137;29;20223;-66
2024/01/22 10:21:45;;;;;;;11.03;2.20;;;;;;;6.55;92.64;100565.53;4862312;29;20234;-64
2024/01/22 10:24:17;;;;;;;8.80;2.20;;;;;;;6.56;92.38;100564.56;4863655;29;20754;-64
2024/01/22 10:26:45;;;;;;;7.43;2.00;;;;;;;6.54;92.69;100563.84;4863402;29;20733;-63
2024/01/22 10:29:19;;;;;;;6.53;2.07;;;;;;;6.59;92.68;100548.53;4864429;29;20262;-63
2024/01/22 10:32:01;;;;;;;8.90;2.00;;;;;;;6.64;92.41;100547.19;4862451;29;20300;-63
2024/01/22 10:34:42;;;;;;;5.77;1.97;;;;;;;6.64;92.33;100539.28;4864735;29;20586;-65
2024/01/22 10:37:13;;;;;;;4.73;1.77;;;;;;;6.70;92.11;100544.06;4863098;29;20212;-67
2024/01/22 10:39:43;;;;;;;9.60;2.37;;;;;;;6.74;91.50;100539.41;4862571;29;20208;-64
2024/01/22 10:42:13;;;;;;;5.67;2.47;;;;;;;6.71;91.96;100529.09;4863140;29;20208;-63
2024/01/22 10:44:44;;;;;;;7.70;2.53;;;;;;;6.70;92.00;100535.31;4861062;29;20245;-64
2024/01/22 10:47:21;;;;;;;6.23;2.27;;;;;;;6.71;91.92;100534.38;4862713;29;20227;-64
2024/01/22 10:49:57;;;;;;;5.30;2.13;;;;;;;6.77;92.05;100532.06;4863333;29;20224;-64
2024/01/22 10:52:27;;;;;;;5.07;2.17;;;;;;;6.86;91.63;100538.41;4864306;29;20302;-64
2024/01/22 10:54:56;;;;;;;5.50;1.70;;;;;;;6.87;92.03;100521.63;4861488;29;20209;-64
2024/01/22 10:57:37;;;;;;;6.27;1.97;;;;;;;6.97;92.08;100519.94;4863529;29;20216;-64
2024/01/22 11:00:11;;;;;;;4.53;1.90;;;;;;;7.02;91.95;100523.06;4862376;29;20689;-64
2024/01/22 11:02:47;;;;;;;10.83;1.90;;;;;;;7.12;91.88;100494.16;4862282;29;21071;-66
2024/01/22 11:05:16;;;;;;;8.17;2.50;;;;;;;7.09;92.48;100513.69;4861925;29;20320;-64
2024/01/22 11:07:49;;;;;;;6.20;1.70;;;;;;;7.17;93.40;100500.72;4863583;29;20229;-64
2024/01/22 11:10:18;;;;;;;3.53;1.90;;;;;;;7.18;94.76;100494.47;4862334;29;20325;-64
2024/01/22 11:12:50;;;;;;;4.27;1.60;;;;;;;7.28;94.82;100480.53;4864761;29;20241;-64
2024/01/22 11:15:19;;;;;;;4.83;1.70;;;;;;;7.30;95.46;100489.97;4864431;29;20603;-65
2024/01/22 11:17:48;;;;;;;4.70;1.97;;;;;;;7.33;96.06;100491.53;4862563;29;20214;-64
2024/01/22 11:20:18;;;;;;;7.37;1.93;;;;;;;7.41;95.96;100491.72;4862206;29;20241;-64
2024/01/22 11:23:00;;;;;;;4.40;1.57;;;;;;;7.45;96.40;100482.59;4866670;29;20217;-65
2024/01/22 11:25:30;;;;;;;8.57;1.77;;;;;;;7.54;96.45;100487.13;4860568;29;20229;-66
2024/01/22 11:28:05;;;;;;;4.30;1.47;;;;;;;7.52;96.55;100478.47;4863261;29;20229;-65
2024/01/22 11:30:36;;;;;;;6.87;2.10;;;;;;;7.62;96.65;100468.84;4857860;29;20314;-64
2024/01/22 11:33:29;;;;;;;3.97;2.10;;;;;;;7.66;97.57;100474.69;4859842;29;20316;-64
2024/01/22 11:35:58;;;;;;;6.27;2.40;;;;;;;7.71;98.59;100460.16;4861379;29;20225;-65
2024/01/22 11:38:52;;;;;;;5.73;2.10;;;;;;;7.79;98.44;100472.69;4859764;29;20274;-64
2024/01/22 11:41:32;;;;;;;5.27;2.17;;;;;;;7.88;98.62;100478.03;4863407;29;20218;-64
2024/01/22 11:44:01;;;;;;;5.70;2.03;;;;;;;7.98;97.76;100448.19;4862303;29;20577;-63
2024/01/22 11:46:29;;;;;;;5.73;2.00;;;;;;;8.03;98.92;100430.13;4862570;29;20367;-63
2024/01/22 11:49:09;;;;;;;5.47;1.50;;;;;;;8.07;99.17;100463.25;4860065;29;20249;-64
2024/01/22 11:51:38;;;;;;;3.23;1.30;;;;;;;8.21;99.45;100433.81;4863143;29;20312;-65
2024/01/22 11:54:09;;;;;;;2.53;1.43;;;;;;;8.22;99.50;100435.50;4862437;29;20210;-65
2024/01/22 11:56:39;;;;;;;3.80;1.57;;;;;;;8.21;99.81;100439.94;4861883;29;20220;-65
2024/01/22 11:59:09;;;;;;;3.17;1.27;;;;;;;8.27;99.74;100455.25;4863400;29;20775;-65
2024/01/22 12:01:37;;;;;;;4.70;1.20;;;;;;;8.32;99.17;100438.22;4861344;29;20226;-64
2024/01/22 12:04:13;;;;;;;5.10;1.67;;;;;;;8.37;98.99;100431.53;4862218;29;20214;-64
2024/01/22 12:06:49;;;;;;;3.50;1.47;;;;;;;8.49;98.43;100422.53;4861685;29;20253;-64
2024/01/22 12:09:20;;;;;;;2.53;1.20;;;;;;;8.53;98.83;100416.00;4861479;29;20742;-64
2024/01/22 12:11:53;;;;;;;2.23;1.03;;;;;;;8.52;99.52;100406.41;4863358;29;20214;-64
2024/01/22 12:14:22;;;;;;;3.17;1.67;;;;;;;8.52;99.32;100405.59;4863519;29;20293;-64
2024/01/22 12:17:00;;;;;;;4.20;1.40;;;;;;;8.63;98.87;100397.50;4862712;29;20219;-65
2024/01/22 12:19:29;;;;;;;4.23;1.30;;;;;;;8.64;98.36;100400.03;4862437;29;20210;-65
2024/01/22 12:22:00;;;;;;;5.63;1.60;;;;;;;8.65;98.19;100383.19;4861044;29;20211;-64
2024/01/22 12:24:31;;;;;;;3.20;1.27;;;;;;;8.68;97.91;100390.84;4862332;29;20235;-65
2024/01/22 12:26:59;;;;;;;3.70;1.20;;;;;;;8.74;98.02;100386.81;4865329;29;20248;-64
2024/01/22 12:29:28;;;;;;;3.17;0.93;;;;;;;8.78;97.65;100395.31;4868226;29;20221;-64
2024/01/22 12:32:04;;;;;;;3.03;1.30;;;;;;;8.78;97.31;100385.59;4864627;29;20215;-66
2024/01/22 12:34:33;;;;;;;3.17;1.33;;;;;;;8.85;96.60;100391.16;4867736;29;20219;-64
2024/01/22 12:37:13;;;;;;;2.47;1.10;;;;;;;8.88;96.13;100385.59;4864340;29;20590;-63
2024/01/22 12:39:44;;;;;;;3.83;1.30;;;;;;;8.88;96.15;100385.59;4868051;29;20661;-64
2024/01/22 12:42:18;;;;;;;3.13;1.00;;;;;;;8.90;96.06;100375.69;4865438;29;20217;-64
2024/01/22 12:44:57;;;;;;;5.47;1.20;;;;;;;8.96;95.50;100388.38;4865489;29;21017;-64
2024/01/22 12:47:26;;;;;;;3.17;1.10;;;;;;;8.98;95.67;100378.47;4866838;29;20206;-65
2024/01/22 12:49:57;;;;;;;4.00;1.20;;;;;;;8.97;94.94;100379.47;4865626;29;20206;-65
2024/01/22 12:52:26;;;;;;;3.37;1.00;;;;;;;9.00;94.93;100393.22;4864857;29;20215;-65
2024/01/22 12:54:56;;;;;;;2.77;1.10;;;;;;;9.02;94.67;100380.69;4865637;29;20908;-65
2024/01/22 12:57:25;;;;;;;3.17;1.30;;;;;;;9.00;94.41;100384.44;4865280;29;20221;-65
2024/01/22 12:59:54;;;;;;;2.90;1.23;;;;;;;9.04;93.97;100385.84;4868148;29;20219;-65
2024/01/22 13:02:23;;;;;;;3.90;1.10;;;;;;;9.07;93.85;100378.47;4869920;29;20253;-65
2024/01/22 13:04:52;;;;;;;3.70;1.10;;;;;;;9.11;93.46;100375.53;4866912;29;20258;-65
2024/01/22 13:07:21;;;;;;;2.80;1.20;;;;;;;9.07;93.35;100374.97;4867346;29;20321;-64
2024/01/22 13:09:49;;;;;;;2.97;1.30;;;;;;;9.05;93.22;100366.38;4865839;29;20210;-65
2024/01/22 13:12:21;;;;;;;4.90;1.67;;;;;;;9.10;92.78;100372.06;4863472;29;20219;-65
2024/01/22 13:14:50;;;;;;;5.47;2.00;;;;;;;9.12;92.31;100372.75;4866084;29;20701;-70
2024/01/22 13:17:19;;;;;;;7.20;1.70;;;;;;;9.12;91.90;100370.13;4866354;29;20245;-65
2024/01/22 13:19:48;;;;;;;6.50;1.80;;;;;;;9.15;91.54;100372.44;4865340;29;21031;-64
2024/01/22 13:22:17;;;;;;;6.00;1.57;;;;;;;9.18;91.19;100364.25;4866233;29;20228;-65
2024/01/22 13:24:46;;;;;;;5.80;1.80;;;;;;;9.17;90.97;100348.50;4864621;29;20733;-65
2024/01/22 13:27:17;;;;;;;4.33;1.80;;;;;;;9.22;90.79;100344.47;4867734;29;20234;-64
2024/01/22 13:29:48;;;;;;;5.57;1.60;;;;;;;9.23;90.69;100346.16;4864758;29;20815;-64
2024/01/22 13:32:19;;;;;;;7.93;2.07;;;;;;;9.27;90.46;100336.09;4867533;29;20242;-64
2024/01/22 13:34:48;;;;;;;5.90;1.30;;;;;;;9.32;90.75;100337.31;4862995;29;20953;-64
2024/01/22 13:37:18;;;;;;;3.30;1.23;;;;;;;9.43;90.23;100331.88;4865507;29;20324;-64
2024/01/22 13:39:46;;;;;;;4.70;1.20;;;;;;;9.50;90.07;100341.91;4867511;29;20301;-64
2024/01/22 13:42:20;;;;;;;5.40;1.37;;;;;;;9.52;89.58;100347.88;4866853;29;20216;-64
2024/01/22 13:44:51;;;;;;;4.07;1.10;;;;;;;9.57;89.35;100345.63;4865156;29;20660;-64
2024/01/22 13:47:20;;;;;;;4.50;1.00;;;;;;;9.66;88.52;100360.66;4863962;29;20325;-64
2024/01/22 13:50:05;;;;;;;3.93;1.00;;;;;;;9.68;88.08;100340.97;4864244;29;20568;-64
2024/01/22 13:52:34;;;;;;;5.70;1.17;;;;;;;9.71;87.70;100353.09;4866030;29;20246;-67
2024/01/22 13:55:05;;;;;;;3.27;0.93;;;;;;;9.76;87.80;100350.88;4864723;29;20228;-64
2024/01/22 13:57:32;;;;;;;4.87;1.20;;;;;;;9.77;87.45;100348.03;4863636;29;20211;-65
2024/01/22 14:00:03;;;;;;;3.57;0.80;;;;;;;9.82;87.36;100332.56;4865963;29;20319;-64
2024/01/22 14:02:31;;;;;;;2.80;0.80;;;;;;;9.84;86.95;100343.03;4865035;29;20217;-65
2024/01/22 14:05:01;;;;;;;2.00;1.10;;;;;;;9.82;86.75;100352.94;4862005;29;20293;-64
2024/01/22 14:07:29;;;;;;;2.50;0.80;;;;;;;9.82;86.53;100355.56;4865163;29;20854;-64
2024/01/22 14:09:58;;;;;;;3.13;0.73;;;;;;;9.90;86.25;100360.97;4863985;29;20244;-66
2024/01/22 14:12:27;;;;;;;3.37;0.80;;;;;;;9.86;85.91;100348.16;4865271;29;20325;-64
2024/01/22 14:14:56;;;;;;;3.53;0.87;;;;;;;9.89;86.09;100366.41;4865039;29;20219;-65
2024/01/22 14:17:26;;;;;;;3.17;0.97;;;;;;;9.91;85.63;100375.88;4863593;29;20218;-64
2024/01/22 14:19:55;;;;;;;3.23;0.90;;;;;;;9.90;85.68;100358.31;4865625;29;20310;-64
2024/01/22 14:22:26;;;;;;;3.03;0.90;;;;;;;9.90;85.44;100354.84;4864834;29;20248;-65
2024/01/22 14:24:56;;;;;;;6.33;1.17;;;;;;;9.92;85.50;100351.06;4863087;29;20340;-65
2024/01/22 14:27:24;;;;;;;5.17;1.07;;;;;;;9.96;84.90;100351.59;4867596;29;20243;-65
2024/01/22 14:29:54;;;;;;;4.23;1.30;;;;;;;9.96;84.85;100348.94;4864144;29;20223;-65
2024/01/22 14:32:24;;;;;;;6.30;1.10;;;;;;;9.96;84.75;100357.72;4866170;29;20272;-64
2024/01/22 14:34:57;;;;;;;4.37;1.17;;;;;;;9.94;84.61;100370.28;4862740;29;20244;-65
2024/01/22 14:37:25;;;;;;;2.47;0.90;;;;;;;9.91;85.05;100383.84;4863025;29;20675;-65
2024/01/22 14:39:54;;;;;;;5.93;1.53;;;;;;;9.97;84.71;100383.25;4862637;29;20240;-65
2024/01/22 14:42:22;;;;;;;3.33;1.07;;;;;;;10.01;84.39;100384.63;4864152;29;20578;-64
2024/01/22 14:44:54;;;;;;;6.77;1.60;;;;;;;9.96;85.20;100394.81;4862255;29;20741;-65
2024/01/22 14:47:22;;;;;;;4.27;1.70;;;;;;;9.95;85.94;100395.78;4862846;29;20247;-65
2024/01/22 14:49:51;;;;;;;6.73;1.33;;;;;;;9.97;86.44;100422.97;4862101;29;20222;-64
2024/01/22 14:52:25;;;;;;;4.90;2.17;;;;;;;9.99;86.66;100436.06;4863631;29;20694;-65
2024/01/22 14:54:54;;;;;;;3.93;1.40;;;;;;;9.98;87.18;100455.59;4864349;29;20210;-65
2024/01/22 14:57:23;;;;;;;5.37;1.53;;;;;;;9.91;87.77;100455.34;4860797;29;20209;-65
2024/01/22 14:59:51;;;;;;;4.43;1.33;;;;;;;9.87;88.63;100443.34;4864075;29;20260;-65
2024/01/22 15:02:24;;;;;;;6.27;1.87;;;;;;;9.87;89.04;100431.94;4865173;29;20282;-64
2024/01/22 15:04:52;;;;;;;10.77;3.30;;;;;;;9.85;88.92;100429.41;4862492;29;20269;-65
2024/01/22 15:07:26;;;;;;;6.00;2.17;;;;;;;9.80;89.12;100426.38;4863310;29;20351;-67
2024/01/22 15:09:56;;;;;;;4.80;1.40;;;;;;;9.75;89.42;100418.03;4865497;29;20214;-64
2024/01/22 15:12:26;;;;;;;5.80;1.27;;;;;;;9.72;89.25;100434.22;4864553;29;20227;-65
2024/01/22 15:14:58;;;;;;;3.80;1.60;;;;;;;9.70;88.86;100430.88;4864029;29;20216;-65
2024/01/22 15:17:28;;;;;;;5.03;1.40;;;;;;;9.67;88.16;100420.56;4866983;29;20204;-65
2024/01/22 15:19:58;;;;;;;5.60;1.30;;;;;;;9.63;88.27;100427.13;4862311;29;20305;-65
2024/01/22 15:22:30;;;;;;;4.97;0.90;;;;;;;9.56;87.54;100426.03;4861402;29;20211;-66
2024/01/22 15:25:00;;;;;;;3.83;0.97;;;;;;;9.44;86.09;100435.94;4862117;29;20255;-64
2024/01/22 15:27:34;;;;;;;5.93;1.40;;;;;;;9.42;85.12;100464.34;4860986;29;20238;-64
2024/01/22 15:30:05;;;;;;;8.47;1.50;;;;;;;9.34;84.53;100467.69;4861281;29;20222;-64
2024/01/22 15:32:35;;;;;;;9.63;2.07;;;;;;;9.27;84.01;100474.53;4862057;29;20230;-64
2024/01/22 15:35:05;;;;;;;10.63;2.17;;;;;;;9.26;84.03;100480.78;4861821;29;20567;-64
2024/01/22 15:37:37;;;;;;;5.37;1.30;;;;;;;9.25;84.02;100473.81;4863636;29;20302;-64
2024/01/22 15:40:07;;;;;;;7.07;1.90;;;;;;;9.23;83.94;100465.22;4864480;29;20221;-63
2024/01/22 15:42:37;;;;;;;4.60;1.37;;;;;;;9.23;84.12;100449.34;4861106;29;20225;-64
2024/01/22 15:45:07;;;;;;;5.27;1.27;;;;;;;9.19;84.56;100444.44;4861393;29;20289;-64
2024/01/22 15:47:41;;;;;;;6.20;1.70;;;;;;;9.20;84.70;100439.03;4866162;29;20234;-65
2024/01/22 15:50:11;;;;;;;5.63;1.77;;;;;;;9.16;84.96;100450.84;4861289;29;20576;-64
2024/01/22 15:52:42;;;;;;;4.93;1.50;;;;;;;9.19;85.31;100458.53;4866535;29;20234;-63
2024/01/22 15:55:11;;;;;;;5.77;1.27;;;;;;;9.14;85.46;100463.41;4863376;29;20749;-64
2024/01/22 15:57:42;;;;;;;12.40;1.60;;;;;;;9.16;85.22;100444.72;4863646;29;20228;-64
2024/01/22 16:00:15;;;;;;;4.67;1.20;;;;;;;9.19;84.80;100431.22;4867871;29;20218;-64
2024/01/22 16:02:45;;;;;;;7.23;1.60;;;;;;;9.17;84.75;100418.13;4866536;29;20214;-64
2024/01/22 16:05:15;;;;;;;5.53;1.40;;;;;;;9.19;84.50;100413.53;4865858;29;20289;-64
2024/01/22 16:07:46;;;;;;;7.07;1.33;;;;;;;9.21;84.08;100442.50;4866540;29;20230;-64
2024/01/22 16:10:16;;;;;;;6.03;1.17;;;;;;;9.20;83.95;100476.06;4864489;29;20278;-64
2024/01/22 16:12:45;;;;;;;3.63;0.90;;;;;;;9.22;83.82;100489.16;4866544;29;20235;-64
2024/01/22 16:15:15;;;;;;;2.93;0.97;;;;;;;9.21;83.34;100493.63;4865412;29;20215;-67
2024/01/22 16:17:44;;;;;;;3.10;0.60;;;;;;;9.22;82.91;100495.28;4867212;29;20651;-63
2024/01/22 16:20:17;;;;;;;2.03;0.50;;;;;;;9.20;82.52;100501.69;4866603;29;20222;-64
2024/01/22 16:22:50;;;;;;;2.97;0.73;;;;;;;9.19;82.08;100495.56;4862431;29;20223;-64
2024/01/22 16:25:23;;;;;;;2.70;0.50;;;;;;;9.19;81.76;100494.72;4865842;29;20589;-64
2024/01/22 16:27:57;;;;;;;1.90;0.60;;;;;;;9.19;81.55;100513.25;4866716;29;20234;-66
2024/01/22 16:30:26;;;;;;;7.20;1.10;;;;;;;9.14;81.18;100518.13;4863557;29;20666;-64
2024/01/22 16:32:56;;;;;;;3.10;0.47;;;;;;;9.12;81.19;100526.19;4866625;29;20241;-65
2024/01/22 16:35:28;;;;;;;2.03;0.60;;;;;;;9.16;81.32;100527.56;4867458;29;20309;-64
2024/01/22 16:38:02;;;;;;;3.77;0.70;;;;;;;9.17;81.23;100534.53;4868124;29;20214;-66
2024/01/22 16:40:31;;;;;;;3.53;0.63;;;;;;;9.18;81.09;100530.94;4868900;29;20249;-65
2024/01/22 16:43:02;;;;;;;3.00;1.00;;;;;;;9.14;81.46;100549.88;4866636;29;20210;-64
2024/01/22 16:45:36;;;;;;;1.10;0.47;;;;;;;9.11;81.68;100548.31;4865220;29;20209;-65
2024/01/22 16:48:05;;;;;;;1.87;0.60;;;;;;;9.11;81.66;100545.69;4863994;29;20282;-65
2024/01/22 16:50:34;;;;;;;4.27;0.80;;;;;;;9.11;81.88;100540.38;4865497;29;20214;-64
2024/01/22 16:53:06;;;;;;;1.57;0.70;;;;;;;9.13;81.72;100553.50;4865758;29;20849;-65
2024/01/22 16:55:35;;;;;;;3.23;0.93;;;;;;;9.12;81.75;100552.66;4866709;29;20218;-64
2024/01/22 16:58:04;;;;;;;2.23;1.10;;;;;;;9.10;81.53;100541.34;4866253;29;20257;-64
2024/01/22 17:00:33;;;;;;;3.37;1.40;;;;;;;9.01;81.54;100550.94;4865249;29;20333;-67
2024/01/22 17:03:02;;;;;;;4.93;1.30;;;;;;;8.95;81.68;100571.81;4864533;29;20310;-66
2024/01/22 17:05:33;;;;;;;2.67;1.37;;;;;;;8.88;82.02;100592.66;4866690;29;20325;-64
2024/01/22 17:08:07;;;;;;;4.73;1.17;;;;;;;8.85;81.99;100584.16;4865854;29;20225;-64
2024/01/22 17:10:44;;;;;;;3.87;1.23;;;;;;;8.79;82.33;100619.09;4865524;29;20309;-67
2024/01/22 17:13:12;;;;;;;7.30;1.60;;;;;;;8.80;82.54;100628.66;4864095;29;20305;-64
2024/01/22 17:15:41;;;;;;;5.13;1.43;;;;;;;8.83;82.33;100626.63;4864571;29;20222;-64
2024/01/22 17:18:10;;;;;;;5.20;1.23;;;;;;;8.81;82.30;100615.31;4864939;29;20211;-64
2024/01/22 17:20:38;;;;;;;5.20;1.30;;;;;;;8.78;82.46;100634.13;4864531;29;20757;-64
2024/01/22 17:23:13;;;;;;;4.60;1.73;;;;;;;8.70;83.09;100636.59;4864586;29;20242;-67
2024/01/22 17:25:47;;;;;;;3.03;1.33;;;;;;;8.67;83.40;100639.47;4867084;29;20871;-66
2024/01/22 17:28:29;;;;;;;4.53;1.70;;;;;;;8.59;84.26;100653.38;4864158;29;20219;-66
2024/01/22 17:30:58;;;;;;;4.90;1.43;;;;;;;8.47;85.58;100662.31;4866884;29;20271;-66
2024/01/22 17:33:28;;;;;;;2.83;1.03;;;;;;;8.42;86.09;100669.81;4865573;29;20215;-65
2024/01/22 17:35:58;;;;;;;6.10;1.23;;;;;;;8.44;86.28;100682.91;4864587;29;20215;-64
2024/01/22 17:38:31;;;;;;;5.13;1.83;;;;;;;8.38;86.65;100694.81;4865913;29;20574;-64
2024/01/22 17:41:00;;;;;;;3.97;1.40;;;;;;;8.36;86.93;100703.81;4863956;29;20263;-64
2024/01/22 17:43:28;;;;;;;4.00;1.40;;;;;;;8.32;87.14;100697.97;4865067;29;20305;-63
2024/01/22 17:45:59;;;;;;;7.23;1.43;;;;;;;8.30;87.40;100707.78;4863401;29;20206;-67
2024/01/22 17:48:30;;;;;;;6.17;1.50;;;;;;;8.32;87.71;100716.47;4866429;29;20260;-64
2024/01/22 17:51:00;;;;;;;4.03;1.60;;;;;;;8.33;87.53;100718.16;4861637;29;20296;-65
2024/01/22 17:53:32;;;;;;;9.70;1.60;;;;;;;8.36;87.74;100722.31;4863295;29;20218;-64
2024/01/22 17:56:02;;;;;;;5.43;1.90;;;;;;;8.43;87.72;100734.91;4864541;29;20210;-64
2024/01/22 17:58:31;;;;;;;7.67;2.00;;;;;;;8.46;87.47;100739.94;4864628;29;20771;-65
2024/01/22 18:01:03;;;;;;;7.80;2.00;;;;;;;8.43;87.37;100740.22;4864568;29;20227;-64
2024/01/22 18:03:33;;;;;;;9.83;1.80;;;;;;;8.43;87.38;100750.78;4864473;29;20230;-64
2024/01/22 18:06:02;;;;;;;7.40;2.03;;;;;;;8.47;87.09;100768.03;4863580;29;20734;-64
2024/01/22 18:08:32;;;;;;;8.60;1.90;;;;;;;8.49;87.10;100774.03;4864818;29;20241;-64
2024/01/22 18:11:01;;;;;;;7.67;1.77;;;;;;;8.56;87.01;100783.13;4865012;29;20266;-64
2024/01/22 18:13:29;;;;;;;10.00;1.77;;;;;;;8.58;86.61;100786.50;4865866;29;20207;-64
2024/01/22 18:16:00;;;;;;;11.03;2.37;;;;;;;8.55;86.67;100797.31;4865174;29;20248;-65
2024/01/22 18:18:28;;;;;;;10.23;2.00;;;;;;;8.52;86.80;100805.50;4864810;29;20218;-64
2024/01/22 18:20:57;;;;;;;9.20;2.20;;;;;;;8.56;86.69;100816.66;4866345;29;20221;-64
2024/01/22 18:23:27;;;;;;;10.23;2.20;;;;;;;8.60;86.60;100818.94;4862811;29;20247;-63
2024/01/22 18:25:57;;;;;;;6.77;2.00;;;;;;;8.62;86.58;100830.19;4863700;29;20218;-64
2024/01/22 18:28:26;;;;;;;7.80;2.43;;;;;;;8.63;86.61;100837.16;4863174;29;20359;-68
2024/01/22 18:30:54;;;;;;;12.73;2.17;;;;;;;8.63;86.05;100845.09;4863567;29;20221;-64
2024/01/22 18:33:25;;;;;;;8.63;2.23;;;;;;;8.56;86.17;100861.59;4868521;29;20226;-64
2024/01/22 18:35:55;;;;;;;9.07;3.13;;;;;;;8.49;86.69;100857.78;4862894;29;20271;-64
2024/01/22 18:38:23;;;;;;;8.23;3.23;;;;;;;8.44;87.04;100871.38;4863762;29;20242;-65
2024/01/22 18:40:52;;;;;;;10.80;3.10;;;;;;;8.45;87.03;100880.97;4863151;29;20300;-64
2024/01/22 18:43:22;;;;;;;14.97;3.33;;;;;;;8.41;87.14;100890.13;4863658;29;20247;-64
2024/01/22 18:45:51;;;;;;;11.70;3.20;;;;;;;8.38;87.46;100889.50;4865936;29;20297;-64
2024/01/22 18:48:19;;;;;;;13.20;4.13;;;;;;;8.39;87.36;100892.03;4861980;29;20246;-64
2024/01/22 18:50:48;;;;;;;10.77;3.30;;;;;;;8.37;87.38;100893.97;4861240;29;20218;-64